Time;durP1;ratioP1;P1;durP2;ratioP2;P2;SDS_P1;SDS_P2;PMS_P1;PMS_P2;Temp;Humidity;BMP_temperature;BMP_pressure;BME280_temperature;BME280_humidity;BME280_pressure;Samples;Min_cycle;Max_cycle;Signal;HPM_P1;HPM_P2
2023/11/03 00:00:32;;;;;;;22.50;2.75;;;8.30;99.90;;;;;;4985816;28;20528;-70
2023/11/03 00:02:59;;;;;;;18.13;3.25;;;8.40;99.90;;;;;;4991600;28;20057;-69
2023/11/03 00:05:26;;;;;;;14.55;2.80;;;8.40;99.90;;;;;;4995591;28;20095;-69
2023/11/03 00:07:54;;;;;;;12.88;3.08;;;8.40;99.90;;;;;;4987137;28;20050;-72
2023/11/03 00:10:21;;;;;;;19.90;6.20;;;8.40;99.90;;;;;;4993927;28;20056;-70
2023/11/03 00:12:48;;;;;;;16.55;2.53;;;8.50;99.90;;;;;;4989084;28;20072;-70
2023/11/03 00:15:16;;;;;;;20.48;2.80;;;8.50;99.90;;;;;;4989225;28;20042;-70
2023/11/03 00:17:43;;;;;;;15.98;2.90;;;8.50;99.90;;;;;;4989277;28;20053;-70
2023/11/03 00:20:14;;;;;;;10.45;2.50;;;8.50;99.90;;;;;;4992043;28;20616;-70
2023/11/03 00:22:42;;;;;;;17.05;3.17;;;8.50;99.90;;;;;;4991793;28;20042;-68
2023/11/03 00:25:13;;;;;;;14.75;3.05;;;8.50;99.90;;;;;;4993564;28;20057;-69
2023/11/03 00:27:42;;;;;;;15.75;2.95;;;8.60;99.90;;;;;;4989433;28;20081;-70
2023/11/03 00:30:10;;;;;;;14.27;2.47;;;8.60;99.90;;;;;;5001460;28;20046;-69
2023/11/03 00:32:37;;;;;;;13.20;3.72;;;8.60;99.90;;;;;;4993133;28;20549;-70
2023/11/03 00:35:08;;;;;;;8.70;2.47;;;8.60;99.90;;;;;;4992514;28;20089;-69
2023/11/03 00:37:37;;;;;;;18.10;4.03;;;8.60;99.90;;;;;;4987910;28;20057;-69
2023/11/03 00:40:05;;;;;;;18.52;3.08;;;8.60;99.90;;;;;;4997968;28;20489;-70
2023/11/03 00:42:31;;;;;;;12.73;2.80;;;8.60;99.90;;;;;;4992261;28;20088;-69
2023/11/03 00:44:58;;;;;;;17.48;2.42;;;8.60;99.90;;;;;;5000778;28;20108;-69
2023/11/03 00:47:25;;;;;;;13.82;2.08;;;8.60;99.90;;;;;;5006668;28;20062;-70
2023/11/03 00:49:52;;;;;;;24.83;3.92;;;8.60;99.90;;;;;;4998375;28;20046;-69
2023/11/03 00:52:19;;;;;;;22.13;6.75;;;8.60;99.90;;;;;;4995786;28;20051;-69
2023/11/03 00:54:46;;;;;;;15.25;3.00;;;8.60;99.90;;;;;;4993079;28;20049;-70
2023/11/03 00:57:13;;;;;;;17.08;2.72;;;8.60;99.90;;;;;;4996462;28;20173;-69
2023/11/03 00:59:40;;;;;;;12.73;2.58;;;8.60;99.90;;;;;;5005070;28;20112;-69
2023/11/03 01:02:09;;;;;;;9.25;2.80;;;8.60;99.90;;;;;;4998317;28;20066;-69
2023/11/03 01:04:36;;;;;;;16.58;2.60;;;8.50;99.90;;;;;;4993625;28;20053;-70
2023/11/03 01:07:03;;;;;;;10.20;2.03;;;8.50;99.90;;;;;;4990867;28;20212;-70
2023/11/03 01:09:30;;;;;;;14.63;2.40;;;8.60;99.90;;;;;;4990660;28;20050;-69
2023/11/03 01:11:57;;;;;;;21.98;3.22;;;8.50;99.90;;;;;;4997867;28;20104;-69
2023/11/03 01:14:24;;;;;;;24.25;3.25;;;8.60;99.90;;;;;;5002597;28;20053;-69
2023/11/03 01:16:51;;;;;;;19.40;3.22;;;8.60;99.90;;;;;;4993969;28;20069;-69
2023/11/03 01:19:21;;;;;;;14.13;3.50;;;8.60;99.90;;;;;;4990462;28;20049;-70
2023/11/03 01:21:48;;;;;;;22.10;2.85;;;8.60;99.90;;;;;;4992184;28;20050;-69
2023/11/03 01:24:15;;;;;;;14.77;2.60;;;8.60;99.90;;;;;;4995649;28;20055;-69
2023/11/03 01:26:43;;;;;;;18.42;4.85;;;8.60;99.90;;;;;;4996727;28;20086;-69
2023/11/03 01:29:10;;;;;;;13.27;2.67;;;8.50;99.90;;;;;;5004187;28;20077;-69
2023/11/03 01:31:39;;;;;;;21.10;3.25;;;8.60;99.90;;;;;;4999572;28;20053;-70
2023/11/03 01:34:05;;;;;;;18.35;2.58;;;8.60;99.90;;;;;;4998134;28;20065;-68
2023/11/03 01:36:35;;;;;;;21.80;3.03;;;8.70;99.90;;;;;;4995720;28;20046;-68
2023/11/03 01:39:05;;;;;;;15.88;2.33;;;8.70;99.90;;;;;;4996312;28;20095;-67
2023/11/03 01:41:32;;;;;;;21.00;3.45;;;8.70;99.90;;;;;;4994059;28;20169;-69
2023/11/03 01:44:05;;;;;;;12.23;2.67;;;8.70;99.90;;;;;;5001201;28;20557;-69
2023/11/03 01:46:36;;;;;;;22.52;3.78;;;8.70;99.90;;;;;;4995735;28;20050;-69
2023/11/03 01:49:05;;;;;;;26.35;3.28;;;8.70;99.90;;;;;;4997814;28;20108;-68
2023/11/03 01:51:35;;;;;;;16.50;2.15;;;8.70;99.90;;;;;;5003676;28;20084;-67
2023/11/03 01:54:03;;;;;;;18.83;4.47;;;8.80;99.90;;;;;;4988119;28;20042;-69
2023/11/03 01:56:31;;;;;;;11.10;3.22;;;8.80;99.90;;;;;;4981877;28;20361;-70
2023/11/03 01:59:00;;;;;;;15.13;2.05;;;8.70;99.90;;;;;;4990588;28;20050;-69
2023/11/03 02:01:27;;;;;;;15.27;2.88;;;8.80;99.90;;;;;;5002975;28;20054;-67
2023/11/03 02:03:55;;;;;;;15.90;3.03;;;8.80;99.90;;;;;;4993888;28;20049;-69
2023/11/03 02:06:22;;;;;;;22.38;5.05;;;8.80;99.90;;;;;;5003218;28;20154;-69
2023/11/03 02:08:49;;;;;;;17.05;4.47;;;8.80;99.90;;;;;;4996120;28;20093;-69
2023/11/03 02:11:25;;;;;;;29.63;3.97;;;8.80;99.90;;;;;;5003372;28;20470;-69
2023/11/03 02:13:52;;;;;;;15.32;1.85;;;8.80;99.90;;;;;;4992687;28;20050;-69
2023/11/03 02:16:19;;;;;;;20.30;3.53;;;8.90;99.90;;;;;;5002351;28;20045;-68
2023/11/03 02:18:46;;;;;;;16.38;2.08;;;8.80;99.90;;;;;;4996141;28;20569;-69
2023/11/03 02:21:13;;;;;;;14.18;3.25;;;8.80;99.90;;;;;;5000713;28;20129;-69
2023/11/03 02:23:40;;;;;;;19.80;3.17;;;8.90;99.90;;;;;;4995803;28;20175;-69
2023/11/03 02:26:07;;;;;;;9.98;2.40;;;8.90;99.90;;;;;;5000993;28;20056;-68
2023/11/03 02:28:33;;;;;;;16.48;3.65;;;8.90;99.90;;;;;;4997040;28;20473;-68
2023/11/03 02:31:00;;;;;;;28.65;2.83;;;8.90;99.90;;;;;;4998614;28;20050;-68
2023/11/03 02:33:27;;;;;;;12.10;2.55;;;8.80;99.90;;;;;;4998774;28;20101;-68
2023/11/03 02:35:54;;;;;;;10.43;1.80;;;8.90;99.90;;;;;;4991186;28;20155;-69
2023/11/03 02:38:21;;;;;;;14.52;2.28;;;8.90;99.90;;;;;;4647068;28;9999876;-68
2023/11/03 02:40:48;;;;;;;17.02;2.88;;;8.90;99.90;;;;;;4993913;28;20069;-69
2023/11/03 02:43:14;;;;;;;11.32;2.20;;;8.90;99.90;;;;;;4998739;28;20170;-68
2023/11/03 02:45:42;;;;;;;12.88;2.25;;;8.80;99.90;;;;;;4990211;28;20406;-67
2023/11/03 02:48:09;;;;;;;14.30;3.78;;;8.80;99.90;;;;;;5003470;28;20121;-68
2023/11/03 02:50:36;;;;;;;14.07;2.97;;;8.90;99.90;;;;;;4992027;28;20468;-68
2023/11/03 02:53:02;;;;;;;13.57;2.58;;;8.80;99.90;;;;;;4993898;28;20100;-68
2023/11/03 02:55:29;;;;;;;11.52;2.10;;;8.80;99.90;;;;;;4992672;28;20120;-69
2023/11/03 02:57:56;;;;;;;15.30;1.85;;;8.80;99.90;;;;;;4993343;28;20070;-67
2023/11/03 03:00:23;;;;;;;15.48;2.97;;;8.80;99.90;;;;;;4999645;28;20061;-69
2023/11/03 03:02:49;;;;;;;14.63;2.05;;;8.80;99.90;;;;;;4983100;28;20108;-69
2023/11/03 03:05:16;;;;;;;17.38;2.63;;;8.80;99.90;;;;;;4996161;28;20056;-69
2023/11/03 03:07:45;;;;;;;14.65;3.72;;;8.80;99.90;;;;;;4988593;28;20478;-69
2023/11/03 03:10:12;;;;;;;17.73;2.22;;;8.80;99.90;;;;;;4997459;28;20050;-69
2023/11/03 03:12:41;;;;;;;25.42;2.45;;;8.80;99.90;;;;;;5002822;28;20057;-68
2023/11/03 03:15:09;;;;;;;14.57;2.22;;;8.80;99.90;;;;;;5000962;28;20483;-68
2023/11/03 03:17:36;;;;;;;16.33;2.45;;;8.80;99.90;;;;;;5001112;28;20100;-69
2023/11/03 03:20:03;;;;;;;9.30;1.77;;;8.70;99.90;;;;;;5004537;28;20050;-68
2023/11/03 03:22:30;;;;;;;17.65;3.85;;;8.70;99.90;;;;;;4993860;28;20147;-68
2023/11/03 03:24:56;;;;;;;17.88;2.50;;;8.70;99.90;;;;;;5001687;28;20126;-68
2023/11/03 03:27:23;;;;;;;15.20;2.15;;;8.70;99.90;;;;;;4988046;28;20386;-68
2023/11/03 03:29:50;;;;;;;17.95;2.35;;;8.70;99.90;;;;;;5003657;28;20070;-69
2023/11/03 03:32:16;;;;;;;15.68;2.85;;;8.70;99.90;;;;;;5003801;28;20517;-69
2023/11/03 03:34:43;;;;;;;18.10;2.67;;;8.70;99.90;;;;;;4997633;28;20046;-68
2023/11/03 03:37:13;;;;;;;31.90;3.85;;;8.60;99.90;;;;;;4996141;28;20054;-68
2023/11/03 03:39:39;;;;;;;19.13;2.15;;;8.70;99.90;;;;;;5005936;28;20046;-69
2023/11/03 03:42:06;;;;;;;12.27;1.92;;;8.70;99.90;;;;;;4996444;28;20050;-68
2023/11/03 03:44:33;;;;;;;25.58;2.67;;;8.70;99.90;;;;;;5008555;28;20053;-69
2023/11/03 03:47:00;;;;;;;19.67;3.00;;;8.70;99.90;;;;;;4996505;28;20057;-68
2023/11/03 03:49:26;;;;;;;15.18;2.50;;;8.70;99.90;;;;;;5007664;28;20050;-68
2023/11/03 03:51:53;;;;;;;14.48;1.88;;;8.70;99.90;;;;;;4998748;28;20236;-69
2023/11/03 03:54:20;;;;;;;16.95;2.22;;;8.70;99.90;;;;;;5004585;28;20049;-69
2023/11/03 03:56:47;;;;;;;14.65;3.08;;;8.70;99.90;;;;;;4999736;28;20089;-68
2023/11/03 03:59:14;;;;;;;9.85;1.88;;;8.60;99.90;;;;;;4993283;28;20101;-68
2023/11/03 04:01:42;;;;;;;10.18;1.77;;;8.60;99.90;;;;;;5000873;28;20065;-68
2023/11/03 04:04:09;;;;;;;17.98;2.40;;;8.60;99.90;;;;;;4994590;28;20448;-69
2023/11/03 04:06:36;;;;;;;10.55;1.75;;;8.60;99.90;;;;;;4994388;28;20074;-68
2023/11/03 04:09:03;;;;;;;14.18;2.10;;;8.60;99.90;;;;;;4999616;28;20603;-68
2023/11/03 04:11:30;;;;;;;10.68;2.03;;;8.60;99.90;;;;;;5000797;28;20486;-69
2023/11/03 04:13:57;;;;;;;12.27;2.33;;;8.60;99.90;;;;;;5001056;28;20050;-68
2023/11/03 04:16:32;;;;;;;15.70;2.03;;;8.70;99.90;;;;;;4995032;28;20457;-68
2023/11/03 04:18:59;;;;;;;13.18;2.67;;;8.60;99.90;;;;;;4998724;28;20053;-69
2023/11/03 04:21:26;;;;;;;13.23;2.03;;;8.60;99.90;;;;;;5004582;28;20461;-68
2023/11/03 04:23:53;;;;;;;15.63;2.10;;;8.60;99.90;;;;;;4992137;28;20494;-68
2023/11/03 04:26:19;;;;;;;11.75;1.67;;;8.60;99.90;;;;;;4994649;28;20047;-68
2023/11/03 04:28:46;;;;;;;15.32;2.22;;;8.60;99.90;;;;;;5002554;28;20053;-68
2023/11/03 04:31:13;;;;;;;18.58;3.78;;;8.60;99.90;;;;;;4992399;28;20039;-68
2023/11/03 04:33:40;;;;;;;16.65;3.08;;;8.50;99.90;;;;;;4999503;28;20428;-67
2023/11/03 04:36:07;;;;;;;15.90;1.92;;;8.50;99.90;;;;;;5002395;28;20042;-68
2023/11/03 04:38:33;;;;;;;26.08;3.80;;;8.50;99.90;;;;;;4999447;28;20105;-69
2023/11/03 04:41:00;;;;;;;13.95;1.98;;;8.50;99.90;;;;;;5003368;28;20042;-69
2023/11/03 04:43:27;;;;;;;11.68;2.97;;;8.50;99.90;;;;;;4998261;28;20100;-69
2023/11/03 04:45:54;;;;;;;15.50;2.42;;;8.50;99.90;;;;;;4990924;28;20097;-68
2023/11/03 04:48:21;;;;;;;13.70;2.42;;;8.50;99.90;;;;;;4996255;28;20056;-69
2023/11/03 04:50:48;;;;;;;6.80;1.70;;;8.50;99.90;;;;;;4991278;28;20915;-69
2023/11/03 04:53:14;;;;;;;19.10;2.30;;;8.50;99.90;;;;;;4992628;28;20046;-68
2023/11/03 04:55:41;;;;;;;10.50;2.05;;;8.50;99.90;;;;;;4993012;28;20111;-69
2023/11/03 04:58:09;;;;;;;16.92;2.35;;;8.50;99.90;;;;;;4997357;28;20046;-69
2023/11/03 05:00:35;;;;;;;7.90;1.95;;;8.50;99.90;;;;;;4997097;28;20452;-69
2023/11/03 05:03:03;;;;;;;24.20;2.53;;;8.50;99.90;;;;;;4991183;28;20058;-69
2023/11/03 05:05:32;;;;;;;17.98;1.60;;;8.50;99.90;;;;;;4997400;28;20133;-68
2023/11/03 05:07:59;;;;;;;18.77;3.85;;;8.50;99.90;;;;;;4996197;28;20054;-69
2023/11/03 05:10:26;;;;;;;9.70;1.60;;;8.50;99.90;;;;;;4989658;28;20108;-69
2023/11/03 05:12:52;;;;;;;11.70;1.85;;;8.50;99.90;;;;;;4984234;28;20050;-67
2023/11/03 05:15:19;;;;;;;16.83;2.17;;;8.50;99.90;;;;;;4996796;28;20391;-69
2023/11/03 05:17:47;;;;;;;12.70;1.65;;;8.50;99.90;;;;;;5005588;28;20100;-68
2023/11/03 05:20:14;;;;;;;15.65;2.03;;;8.50;99.90;;;;;;4998676;28;20046;-68
2023/11/03 05:22:41;;;;;;;11.38;1.73;;;8.50;99.90;;;;;;5006376;28;20053;-68
2023/11/03 05:25:08;;;;;;;14.80;2.67;;;8.50;99.90;;;;;;4991725;28;20204;-69
2023/11/03 05:27:35;;;;;;;16.58;2.55;;;8.40;99.90;;;;;;5010068;28;20521;-69
2023/11/03 05:30:03;;;;;;;11.45;2.75;;;8.40;99.90;;;;;;4998081;28;20084;-69
2023/11/03 05:32:30;;;;;;;9.88;2.15;;;8.40;99.90;;;;;;4992010;28;20112;-69
2023/11/03 05:34:59;;;;;;;12.65;1.90;;;8.40;99.90;;;;;;4998432;28;20045;-69
2023/11/03 05:37:27;;;;;;;10.18;1.60;;;8.40;99.90;;;;;;4996110;28;20149;-69
2023/11/03 05:39:53;;;;;;;12.70;2.22;;;8.40;99.90;;;;;;5003016;28;20086;-69
2023/11/03 05:42:20;;;;;;;18.50;3.97;;;8.40;99.90;;;;;;4990247;28;20042;-69
2023/11/03 05:44:47;;;;;;;9.82;1.58;;;8.40;99.90;;;;;;5001147;28;20055;-69
2023/11/03 05:47:14;;;;;;;13.40;2.13;;;8.40;99.90;;;;;;4991234;28;20100;-69
2023/11/03 05:49:41;;;;;;;11.25;1.95;;;8.40;99.90;;;;;;5006684;28;20046;-69
2023/11/03 05:52:08;;;;;;;7.80;1.38;;;8.40;99.90;;;;;;4996131;28;20046;-70
2023/11/03 05:54:34;;;;;;;17.33;1.77;;;8.40;99.90;;;;;;5005122;28;20054;-69
2023/11/03 05:57:01;;;;;;;11.98;1.65;;;8.40;99.90;;;;;;4994682;28;20105;-69
2023/11/03 05:59:29;;;;;;;11.65;2.10;;;8.40;99.90;;;;;;5001735;28;20042;-68
2023/11/03 06:01:56;;;;;;;10.35;2.10;;;8.30;99.90;;;;;;4993545;28;20057;-69
2023/11/03 06:04:23;;;;;;;15.40;2.25;;;8.30;99.90;;;;;;4994115;28;20046;-70
2023/11/03 06:06:49;;;;;;;10.85;2.38;;;8.30;99.90;;;;;;4995646;28;20074;-69
2023/11/03 06:09:17;;;;;;;10.40;1.40;;;8.30;99.90;;;;;;4997621;28;20105;-69
2023/11/03 06:11:44;;;;;;;14.00;1.23;;;8.30;99.90;;;;;;4999173;28;20046;-69
2023/11/03 06:14:10;;;;;;;6.40;1.33;;;8.40;99.90;;;;;;4991343;28;20047;-70
2023/11/03 06:16:38;;;;;;;7.70;1.80;;;8.30;99.90;;;;;;4999884;28;20050;-69
2023/11/03 06:19:05;;;;;;;10.63;2.10;;;8.30;99.90;;;;;;5003780;28;20049;-69
2023/11/03 06:21:32;;;;;;;12.43;1.90;;;8.30;99.90;;;;;;4996605;28;20527;-70
2023/11/03 06:23:59;;;;;;;13.52;1.60;;;8.30;99.90;;;;;;5000546;28;20085;-69
2023/11/03 06:26:26;;;;;;;11.95;1.48;;;8.30;99.90;;;;;;4983701;28;20504;-69
2023/11/03 06:28:56;;;;;;;8.98;1.52;;;8.20;99.90;;;;;;4997484;28;20093;-69
2023/11/03 06:31:23;;;;;;;6.82;1.48;;;8.30;99.90;;;;;;5000684;28;20042;-69
2023/11/03 06:33:50;;;;;;;16.88;1.83;;;8.30;99.90;;;;;;5001489;28;20054;-69
2023/11/03 06:36:17;;;;;;;9.45;2.28;;;8.30;99.90;;;;;;4996913;28;20045;-68
2023/11/03 06:38:44;;;;;;;11.18;1.73;;;8.30;99.90;;;;;;4998405;28;20133;-68
2023/11/03 06:41:11;;;;;;;7.63;1.50;;;8.30;99.90;;;;;;4997534;28;20084;-68
2023/11/03 06:43:39;;;;;;;10.88;1.60;;;8.30;99.90;;;;;;5000406;28;20148;-68
2023/11/03 06:46:09;;;;;;;10.52;1.25;;;8.20;99.90;;;;;;5003843;28;20475;-68
2023/11/03 06:48:39;;;;;;;6.88;1.58;;;8.30;99.90;;;;;;5005850;28;20116;-68
2023/11/03 06:51:10;;;;;;;10.13;1.48;;;8.20;99.90;;;;;;4983540;28;20492;-67
2023/11/03 06:53:37;;;;;;;11.05;1.52;;;8.30;99.90;;;;;;4997398;28;20050;-67
2023/11/03 06:56:05;;;;;;;6.57;1.70;;;8.30;99.90;;;;;;5000653;28;20113;-68
2023/11/03 06:58:34;;;;;;;14.10;2.00;;;8.40;99.90;;;;;;5008311;28;20100;-69
2023/11/03 07:01:01;;;;;;;10.98;1.73;;;8.30;99.90;;;;;;4993920;28;20046;-68
2023/11/03 07:03:28;;;;;;;7.05;1.67;;;8.40;99.90;;;;;;4992709;28;20631;-68
2023/11/03 07:05:55;;;;;;;12.93;2.28;;;8.40;99.90;;;;;;4999829;28;20045;-67
2023/11/03 07:08:22;;;;;;;6.50;1.17;;;8.40;99.90;;;;;;4999692;28;20663;-68
2023/11/03 07:10:49;;;;;;;10.45;1.33;;;8.40;99.90;;;;;;4999663;28;20046;-69
2023/11/03 07:13:15;;;;;;;11.23;1.45;;;8.40;99.90;;;;;;5000863;28;20042;-69
2023/11/03 07:15:43;;;;;;;9.88;1.25;;;8.50;99.90;;;;;;4999890;28;20542;-68
2023/11/03 07:18:11;;;;;;;7.28;1.73;;;8.40;99.90;;;;;;4997131;28;20046;-70
2023/11/03 07:20:39;;;;;;;14.18;1.67;;;8.50;99.90;;;;;;4999934;28;20101;-70
2023/11/03 07:23:07;;;;;;;8.98;1.63;;;8.50;99.90;;;;;;5001265;28;20057;-71
2023/11/03 07:25:33;;;;;;;10.85;1.40;;;8.50;99.90;;;;;;5003364;28;20503;-70
2023/11/03 07:28:00;;;;;;;6.55;1.65;;;8.50;99.90;;;;;;4999865;28;20103;-70
2023/11/03 07:30:28;;;;;;;13.00;1.65;;;8.50;99.90;;;;;;4996359;28;20057;-70
2023/11/03 07:32:55;;;;;;;5.85;1.77;;;8.50;99.90;;;;;;4989714;28;20039;-70
2023/11/03 07:35:22;;;;;;;14.30;3.30;;;8.60;99.90;;;;;;5006025;28;20202;-70
2023/11/03 07:37:48;;;;;;;10.43;1.55;;;8.60;99.90;;;;;;5023458;28;20053;-70
2023/11/03 07:40:16;;;;;;;11.95;1.67;;;8.70;99.90;;;;;;4989915;28;20046;-74
2023/11/03 07:42:43;;;;;;;6.82;1.50;;;8.70;99.90;;;;;;4991627;28;20088;-70
2023/11/03 07:45:11;;;;;;;9.75;1.55;;;8.80;99.90;;;;;;4992878;28;20252;-69
2023/11/03 07:47:41;;;;;;;14.95;1.63;;;8.90;99.90;;;;;;4990153;28;20053;-70
2023/11/03 07:50:09;;;;;;;8.55;1.27;;;8.90;99.90;;;;;;4999894;28;20042;-71
2023/11/03 07:52:35;;;;;;;9.85;1.67;;;9.00;99.90;;;;;;5004438;28;20571;-70
2023/11/03 07:55:02;;;;;;;22.75;2.22;;;9.10;99.90;;;;;;4991813;28;20058;-69
2023/11/03 07:57:30;;;;;;;8.05;1.60;;;9.10;99.90;;;;;;4990581;28;20466;-67
2023/11/03 07:59:57;;;;;;;11.55;3.35;;;9.20;99.90;;;;;;4992975;28;20113;-70
2023/11/03 08:02:24;;;;;;;8.63;1.35;;;9.20;99.90;;;;;;4998150;28;20322;-67
2023/11/03 08:04:51;;;;;;;5.05;1.73;;;9.20;99.90;;;;;;4995664;28;20046;-68
2023/11/03 08:07:18;;;;;;;13.88;1.92;;;9.30;99.90;;;;;;4988217;28;20046;-67
2023/11/03 08:09:45;;;;;;;10.10;1.50;;;9.30;99.90;;;;;;5000738;28;20056;-68
2023/11/03 08:12:13;;;;;;;8.38;1.90;;;9.40;99.90;;;;;;5002850;28;20047;-67
2023/11/03 08:14:40;;;;;;;6.63;1.20;;;9.50;99.90;;;;;;4997430;28;20419;-66
2023/11/03 08:17:07;;;;;;;9.13;1.50;;;9.50;99.90;;;;;;5006071;28;20043;-65
2023/11/03 08:19:34;;;;;;;8.73;1.50;;;9.60;99.90;;;;;;4996974;28;20057;-65
2023/11/03 08:22:01;;;;;;;10.75;1.52;;;9.70;99.90;;;;;;4993936;28;20567;-66
2023/11/03 08:24:28;;;;;;;6.40;1.60;;;9.70;99.90;;;;;;4997015;28;20096;-66
2023/11/03 08:26:55;;;;;;;6.20;1.33;;;9.80;99.90;;;;;;4995355;28;20043;-65
2023/11/03 08:29:21;;;;;;;8.95;1.40;;;9.90;99.90;;;;;;4993629;28;20134;-65
2023/11/03 08:31:48;;;;;;;9.82;1.70;;;9.90;99.90;;;;;;4998230;28;20046;-65
2023/11/03 08:34:15;;;;;;;13.20;3.60;;;9.90;99.90;;;;;;5004054;28;20494;-65
2023/11/03 08:36:42;;;;;;;8.93;1.38;;;9.90;99.90;;;;;;4996375;28;20278;-65
2023/11/03 08:39:09;;;;;;;9.23;1.45;;;10.10;99.90;;;;;;4996535;28;20054;-65
2023/11/03 08:41:55;;;;;;;8.30;1.33;;;10.00;99.90;;;;;;4992068;28;20049;-65
2023/11/03 08:44:22;;;;;;;11.25;1.50;;;10.00;99.90;;;;;;4993946;28;20567;-66
2023/11/03 08:46:50;;;;;;;14.27;1.92;;;10.00;99.90;;;;;;4991660;28;20050;-66
2023/11/03 08:49:17;;;;;;;9.32;1.30;;;10.00;99.90;;;;;;4990881;28;20090;-66
2023/11/03 08:51:44;;;;;;;7.15;1.17;;;10.20;99.90;;;;;;4995413;28;20049;-66
2023/11/03 08:54:11;;;;;;;8.90;1.45;;;10.10;99.90;;;;;;4992559;28;20050;-64
2023/11/03 08:56:41;;;;;;;12.43;1.75;;;10.10;99.90;;;;;;4994395;28;20034;-65
2023/11/03 08:59:08;;;;;;;5.38;1.80;;;10.20;99.90;;;;;;4994986;28;20066;-64
2023/11/03 09:01:34;;;;;;;23.45;3.03;;;10.20;99.90;;;;;;4991903;28;20046;-66
2023/11/03 09:04:01;;;;;;;10.00;1.30;;;10.30;99.90;;;;;;4992053;28;20086;-66
2023/11/03 09:06:29;;;;;;;6.25;1.00;;;10.30;99.90;;;;;;4992626;28;20072;-65
2023/11/03 09:08:56;;;;;;;5.95;0.90;;;10.40;99.90;;;;;;5003695;28;20042;-65
2023/11/03 09:11:24;;;;;;;5.40;1.13;;;10.40;99.90;;;;;;4997384;28;20409;-68
2023/11/03 09:13:52;;;;;;;9.30;1.95;;;10.50;99.90;;;;;;4990813;28;20408;-67
2023/11/03 09:16:21;;;;;;;12.13;4.07;;;10.60;99.90;;;;;;4996571;28;20050;-67
2023/11/03 09:18:52;;;;;;;12.30;1.33;;;10.50;99.90;;;;;;5001708;28;20054;-67
2023/11/03 09:21:19;;;;;;;3.20;1.33;;;10.60;99.90;;;;;;4996011;28;20054;-66
2023/11/03 09:23:47;;;;;;;12.77;1.33;;;10.70;99.90;;;;;;4993630;28;20164;-66
2023/11/03 09:26:14;;;;;;;9.38;1.02;;;10.70;99.90;;;;;;5002589;28;20108;-66
2023/11/03 09:28:41;;;;;;;8.30;1.42;;;10.70;99.90;;;;;;4991486;28;20207;-66
2023/11/03 09:31:07;;;;;;;8.23;1.17;;;10.80;99.90;;;;;;4988636;28;20052;-66
2023/11/03 09:33:34;;;;;;;6.07;1.25;;;10.90;99.90;;;;;;5000548;28;20390;-66
2023/11/03 09:36:03;;;;;;;5.07;0.90;;;11.00;99.90;;;;;;5001424;28;20100;-66
2023/11/03 09:38:31;;;;;;;8.27;1.67;;;11.10;99.90;;;;;;4982270;28;20038;-66
2023/11/03 09:40:58;;;;;;;5.00;0.90;;;11.10;99.90;;;;;;4991058;28;20489;-66
2023/11/03 09:43:25;;;;;;;7.80;2.25;;;11.20;99.90;;;;;;4999473;28;20148;-66
2023/11/03 09:45:52;;;;;;;5.90;1.02;;;11.20;99.90;;;;;;4994881;28;20045;-66
2023/11/03 09:48:22;;;;;;;5.32;1.42;;;11.30;99.90;;;;;;4996224;28;20408;-66
2023/11/03 09:50:49;;;;;;;10.90;1.42;;;11.40;99.90;;;;;;5004071;28;20061;-66
2023/11/03 09:53:22;;;;;;;6.10;0.88;;;11.40;99.90;;;;;;4997184;28;20050;-66
2023/11/03 09:55:49;;;;;;;13.70;1.52;;;11.40;99.90;;;;;;4991396;28;20042;-65
2023/11/03 09:58:16;;;;;;;5.15;1.30;;;11.40;99.90;;;;;;5004672;28;20033;-66
2023/11/03 10:00:44;;;;;;;5.93;1.17;;;11.50;99.90;;;;;;4997983;28;20055;-65
2023/11/03 10:03:12;;;;;;;11.48;2.05;;;11.50;99.90;;;;;;4997954;28;20042;-66
2023/11/03 10:05:39;;;;;;;11.07;1.63;;;11.50;99.90;;;;;;4997444;28;20046;-66
2023/11/03 10:08:07;;;;;;;9.30;1.75;;;11.50;99.90;;;;;;4990453;28;20050;-66
2023/11/03 10:10:35;;;;;;;4.63;1.42;;;11.50;99.90;;;;;;5004455;28;20103;-66
2023/11/03 10:13:09;;;;;;;9.23;1.50;;;11.60;99.90;;;;;;4992771;28;20070;-66
2023/11/03 10:15:38;;;;;;;6.53;1.23;;;11.60;99.90;;;;;;4986609;28;20046;-66
2023/11/03 10:18:05;;;;;;;7.82;1.13;;;11.60;99.90;;;;;;4989655;28;20054;-66
2023/11/03 10:20:34;;;;;;;5.82;1.13;;;11.70;99.90;;;;;;4983989;28;20049;-67
2023/11/03 10:23:01;;;;;;;7.35;1.25;;;11.70;99.90;;;;;;4981675;28;20470;-66
2023/11/03 10:25:30;;;;;;;4.40;1.05;;;11.80;99.90;;;;;;4986157;28;20049;-68
2023/11/03 10:27:57;;;;;;;6.53;0.90;;;11.80;99.90;;;;;;4992829;28;20108;-65
2023/11/03 10:30:27;;;;;;;7.18;1.33;;;11.90;99.90;;;;;;4982541;28;20081;-66
2023/11/03 10:32:54;;;;;;;10.18;1.58;;;12.00;99.90;;;;;;4997247;28;20038;-66
2023/11/03 10:35:21;;;;;;;7.57;2.10;;;12.10;99.90;;;;;;5000739;28;20357;-67
2023/11/03 10:37:48;;;;;;;8.88;1.73;;;12.10;99.90;;;;;;4997512;28;20213;-66
2023/11/03 10:40:15;;;;;;;6.72;1.45;;;12.10;99.90;;;;;;4997187;28;20050;-67
2023/11/03 10:42:50;;;;;;;5.75;1.50;;;12.10;99.90;;;;;;5005357;28;20481;-67
2023/11/03 10:45:18;;;;;;;12.63;1.55;;;12.20;99.90;;;;;;5000724;28;20045;-67
2023/11/03 10:48:08;;;;;;;8.93;1.38;;;12.30;99.90;;;;;;4992325;28;20046;-67
2023/11/03 10:50:35;;;;;;;14.18;2.22;;;12.40;99.90;;;;;;5002173;28;20075;-66
2023/11/03 10:53:30;;;;;;;12.13;1.80;;;12.40;99.90;;;;;;5010675;28;20489;-66
2023/11/03 10:56:09;;;;;;;9.65;1.98;;;12.40;99.90;;;;;;4999015;28;20076;-66
2023/11/03 10:58:56;;;;;;;7.15;1.35;;;12.40;99.90;;;;;;5008845;28;20039;-66
2023/11/03 11:01:32;;;;;;;7.10;1.30;;;12.50;99.90;;;;;;4994961;28;20054;-66
2023/11/03 11:04:18;;;;;;;11.90;1.42;;;12.50;99.90;;;;;;4990352;28;20049;-67
2023/11/03 11:06:50;;;;;;;7.38;1.70;;;12.50;99.90;;;;;;4987144;28;20516;-66
2023/11/03 11:09:24;;;;;;;7.63;1.67;;;12.50;99.90;;;;;;5005562;28;20472;-67
2023/11/03 11:11:51;;;;;;;;;;;12.60;99.90;;;;;;5001609;28;20050;-66
2023/11/03 11:14:24;;;;;;;7.85;1.30;;;12.60;99.90;;;;;;5006414;28;19933;-66
2023/11/03 11:16:54;;;;;;;12.93;1.65;;;12.70;99.90;;;;;;5005795;28;20414;-67
2023/11/03 11:19:42;;;;;;;9.45;1.00;;;12.70;99.90;;;;;;4996149;28;20065;-67
2023/11/03 11:22:12;;;;;;;7.78;1.10;;;12.80;99.90;;;;;;4996310;28;20061;-66
2023/11/03 11:24:40;;;;;;;2.72;0.88;;;12.90;99.90;;;;;;5004242;28;20508;-66
2023/11/03 11:27:18;;;;;;;4.68;1.30;;;12.90;99.90;;;;;;5006636;28;20042;-66
2023/11/03 11:29:52;;;;;;;4.72;0.95;;;13.00;99.90;;;;;;4995997;28;20043;-65
2023/11/03 11:32:19;;;;;;;6.65;1.50;;;13.00;99.90;;;;;;4994002;28;20042;-65
2023/11/03 11:34:46;;;;;;;14.48;2.08;;;13.10;99.90;;;;;;5003765;28;20386;-67
2023/11/03 11:37:28;;;;;;;11.25;2.10;;;13.10;99.90;;;;;;5000249;28;20047;-67
2023/11/03 11:39:59;;;;;;;6.47;0.98;;;13.10;99.90;;;;;;5005643;28;20054;-68
2023/11/03 11:42:28;;;;;;;6.30;1.35;;;13.10;99.90;;;;;;4997127;28;20544;-67
2023/11/03 11:44:54;;;;;;;7.10;1.73;;;13.20;99.90;;;;;;4996449;28;20107;-67
2023/11/03 11:47:24;;;;;;;4.53;1.30;;;13.20;99.90;;;;;;4999329;28;20125;-66
2023/11/03 11:49:52;;;;;;;11.50;1.40;;;13.20;99.90;;;;;;5002819;28;20517;-67
2023/11/03 11:52:29;;;;;;;4.40;1.10;;;13.10;99.90;;;;;;5003358;28;20084;-66
2023/11/03 11:54:57;;;;;;;6.28;1.20;;;13.20;99.90;;;;;;5002432;28;20100;-67
2023/11/03 11:57:27;;;;;;;8.45;1.25;;;13.20;99.90;;;;;;4999568;28;20070;-66
2023/11/03 11:59:54;;;;;;;5.40;1.45;;;13.10;99.90;;;;;;4989722;28;20493;-67
2023/11/03 12:02:21;;;;;;;8.13;1.10;;;13.10;99.90;;;;;;4999991;28;20046;-66
2023/11/03 12:04:50;;;;;;;9.90;1.58;;;13.10;99.90;;;;;;4997625;28;20116;-66
2023/11/03 12:07:24;;;;;;;11.80;2.33;;;13.20;99.90;;;;;;5001845;28;20572;-66
2023/11/03 12:09:55;;;;;;;12.15;1.35;;;13.30;99.90;;;;;;4993907;28;20050;-66
2023/11/03 12:12:22;;;;;;;7.32;1.10;;;13.30;99.90;;;;;;5001573;28;20061;-66
2023/11/03 12:14:51;;;;;;;9.63;1.65;;;13.40;99.90;;;;;;4995288;28;20038;-66
2023/11/03 12:17:21;;;;;;;6.25;1.25;;;13.40;99.90;;;;;;4996451;28;20042;-66
2023/11/03 12:19:49;;;;;;;13.00;2.05;;;13.50;99.90;;;;;;4997519;28;20054;-65
2023/11/03 12:22:19;;;;;;;8.30;1.17;;;13.50;99.90;;;;;;5004974;28;20069;-65
2023/11/03 12:24:49;;;;;;;7.20;1.20;;;13.60;99.90;;;;;;4992738;28;20414;-64
2023/11/03 12:27:16;;;;;;;8.85;2.00;;;13.60;99.90;;;;;;5005202;28;20054;-66
2023/11/03 12:29:44;;;;;;;8.00;1.52;;;13.60;99.90;;;;;;4993778;28;20468;-66
2023/11/03 12:32:11;;;;;;;7.97;1.23;;;13.60;99.90;;;;;;4989933;28;20073;-65
2023/11/03 12:34:40;;;;;;;8.70;1.20;;;13.70;99.90;;;;;;4990044;28;20046;-66
2023/11/03 12:37:07;;;;;;;7.28;1.52;;;13.70;99.90;;;;;;5003953;28;20052;-65
2023/11/03 12:39:54;;;;;;;8.88;1.75;;;13.70;99.90;;;;;;4997277;28;20561;-66
2023/11/03 12:42:26;;;;;;;9.60;2.15;;;13.60;99.90;;;;;;5005337;28;20046;-65
2023/11/03 12:44:56;;;;;;;8.35;1.40;;;13.60;99.90;;;;;;4998982;28;20078;-65
2023/11/03 12:47:45;;;;;;;9.60;1.27;;;13.50;99.90;;;;;;4993109;28;20046;-65
2023/11/03 12:50:17;;;;;;;7.72;1.33;;;13.50;99.90;;;;;;4988122;28;20054;-65
2023/11/03 12:52:49;;;;;;;6.75;1.25;;;13.40;99.90;;;;;;5005124;28;20046;-65